Time;durP1;ratioP1;P1;durP2;ratioP2;P2;SDS_P1;SDS_P2;PMS_P1;PMS_P2;Temp;Humidity;BMP_temperature;BMP_pressure;BME280_temperature;BME280_humidity;BME280_pressure;Samples;Min_cycle;Max_cycle;Signal;HPM_P1;HPM_P2
2023/03/30 00:00:15;;;;;;;14.20;8.38;;;;;;;0.09;55.59;100981.03;1425392;91;21554;-77
2023/03/30 00:02:37;;;;;;;18.73;9.85;;;;;;;0.08;56.52;100979.78;1427342;91;21518;-76
2023/03/30 00:05:05;;;;;;;22.48;10.28;;;;;;;0.07;56.37;100983.31;1425483;91;21605;-78
2023/03/30 00:07:31;;;;;;;14.15;8.95;;;;;;;0.09;56.38;100982.34;1427251;91;21648;-78
2023/03/30 00:10:01;;;;;;;20.75;9.55;;;;;;;0.11;56.05;100977.89;1427096;91;21871;-79
2023/03/30 00:12:26;;;;;;;19.82;9.08;;;;;;;0.11;56.34;100971.38;1425723;90;22344;-78
2023/03/30 00:14:53;;;;;;;14.83;8.93;;;;;;;0.12;56.32;100972.25;1423391;91;21368;-78
2023/03/30 00:17:19;;;;;;;14.93;8.55;;;;;;;0.11;56.18;100967.94;1423162;91;21369;-79
2023/03/30 00:19:46;;;;;;;16.97;9.00;;;;;;;0.14;56.13;100967.80;1421352;91;21561;-78
2023/03/30 00:22:12;;;;;;;20.80;9.98;;;;;;;0.15;56.44;100965.61;1425301;91;22419;-79
2023/03/30 00:24:38;;;;;;;19.30;9.90;;;;;;;0.16;56.89;100962.91;1424983;91;21360;-78
2023/03/30 00:27:05;;;;;;;19.20;10.15;;;;;;;0.16;56.68;100960.77;1419550;91;21398;-79
2023/03/30 00:29:32;;;;;;;15.60;8.65;;;;;;;0.14;57.13;100962.59;1422175;91;21592;-77
2023/03/30 00:31:58;;;;;;;15.75;9.50;;;;;;;0.12;57.05;100965.74;1423208;91;22306;-77
2023/03/30 00:34:24;;;;;;;14.65;7.70;;;;;;;0.06;57.07;100959.48;1425684;91;21420;-78
2023/03/30 00:36:52;;;;;;;16.17;8.80;;;;;;;0.03;57.12;100957.88;1428447;91;21516;-77
2023/03/30 00:39:21;;;;;;;17.65;9.10;;;;;;;0.02;56.98;100954.03;1429368;91;21443;-77
2023/03/30 00:41:46;;;;;;;14.18;8.10;;;;;;;0.02;57.42;100958.77;1421652;91;22365;-76
2023/03/30 00:44:52;;;;;;;15.58;9.08;;;;;;;-0.01;57.41;100953.24;1422538;91;21518;-76
2023/03/30 00:47:19;;;;;;;14.00;8.30;;;;;;;-0.02;58.00;100946.82;1430692;91;21456;-77
2023/03/30 00:49:45;;;;;;;19.35;8.23;;;;;;;-0.02;57.48;100944.22;1417520;91;21412;-76
2023/03/30 00:52:12;;;;;;;13.05;8.05;;;;;;;-0.01;57.65;100948.50;1425163;91;21368;-77
2023/03/30 00:54:39;;;;;;;13.85;8.00;;;;;;;-0.03;57.49;100945.98;1432979;91;21456;-77
2023/03/30 00:57:07;;;;;;;19.95;9.03;;;;;;;-0.04;57.87;100946.88;1429182;91;21501;-75
2023/03/30 00:59:33;;;;;;;13.55;8.03;;;;;;;-0.07;57.99;100946.17;1425167;91;21397;-76
2023/03/30 01:02:00;;;;;;;16.20;7.65;;;;;;;-0.10;58.35;100951.05;1429134;91;22552;-77
2023/03/30 01:04:27;;;;;;;16.42;8.03;;;;;;;-0.13;58.25;100953.78;1430557;91;22381;-77
2023/03/30 01:06:56;;;;;;;16.07;7.80;;;;;;;-0.15;58.24;100953.46;1425964;91;21398;-77
2023/03/30 01:09:24;;;;;;;21.25;8.08;;;;;;;-0.16;58.24;100958.28;1423023;91;21412;-78
2023/03/30 01:11:50;;;;;;;12.70;7.08;;;;;;;-0.16;58.33;100956.98;1425061;91;21391;-79
2023/03/30 01:14:17;;;;;;;11.85;7.17;;;;;;;-0.17;58.34;100950.07;1432475;91;22484;-79
2023/03/30 01:17:14;;;;;;;13.05;7.80;;;;;;;-0.16;58.42;100952.63;1425088;91;21568;-79
2023/03/30 01:20:22;;;;;;;13.53;7.33;;;;;;;-0.15;58.74;100953.46;1409235;92;21377;-79
2023/03/30 01:23:26;;;;;;;11.43;6.90;;;;;;;-0.16;58.47;100946.58;1423874;91;22532;-79
2023/03/30 01:26:13;;;;;;;13.48;6.78;;;;;;;-0.16;58.57;100943.98;1424981;91;21405;-79
2023/03/30 01:29:00;;;;;;;12.68;6.20;;;;;;;-0.19;58.57;100940.20;1419579;91;22337;-78
2023/03/30 01:31:50;;;;;;;14.30;8.10;;;;;;;-0.19;58.59;100946.72;1431648;91;21516;-79
2023/03/30 01:34:28;;;;;;;12.90;6.60;;;;;;;-0.20;58.88;100942.40;1421714;91;21442;-79
2023/03/30 01:37:38;;;;;;;12.60;7.22;;;;;;;-0.23;59.43;100942.11;1426734;91;21457;-78
2023/03/30 01:40:17;;;;;;;11.50;6.95;;;;;;;-0.25;58.94;100947.82;1419374;91;21486;-78
2023/03/30 01:42:52;;;;;;;25.97;7.78;;;;;;;-0.27;58.92;100947.88;1425146;91;21420;-77
2023/03/30 01:45:30;;;;;;;11.57;6.67;;;;;;;-0.29;59.21;100963.15;1424169;91;22468;-76
2023/03/30 01:48:05;;;;;;;9.75;6.42;;;;;;;-0.30;59.19;100962.77;1412893;92;21443;-78
2023/03/30 01:50:43;;;;;;;12.63;6.83;;;;;;;-0.30;59.15;100960.17;1425853;91;21605;-78
2023/03/30 01:53:23;;;;;;;13.43;6.80;;;;;;;-0.31;59.02;100955.89;1427853;91;21383;-78
2023/03/30 01:56:13;;;;;;;11.85;7.17;;;;;;;-0.32;59.13;100958.08;1419727;91;21495;-78
2023/03/30 01:58:47;;;;;;;16.65;8.20;;;;;;;-0.31;59.28;100961.09;1432493;91;22603;-78
2023/03/30 02:01:16;;;;;;;13.22;6.60;;;;;;;-0.32;59.97;100961.98;1428783;91;21533;-78
2023/03/30 02:03:45;;;;;;;13.85;6.67;;;;;;;-0.31;59.50;100958.48;1426329;91;22404;-77
2023/03/30 02:06:23;;;;;;;13.55;6.87;;;;;;;-0.31;59.56;100957.19;1432536;91;21370;-77
2023/03/30 02:08:53;;;;;;;11.38;6.70;;;;;;;-0.31;59.73;100951.98;1424361;91;22306;-78
2023/03/30 02:11:22;;;;;;;13.45;7.10;;;;;;;-0.29;59.86;100956.65;1427061;91;22316;-77
2023/03/30 02:13:51;;;;;;;21.15;7.05;;;;;;;-0.32;60.26;100948.98;1417228;91;21360;-77
2023/03/30 02:16:23;;;;;;;12.68;7.10;;;;;;;-0.34;60.08;100948.22;1430732;91;21552;-78
2023/03/30 02:18:50;;;;;;;13.83;6.83;;;;;;;-0.36;60.28;100943.53;1416229;92;21464;-77
2023/03/30 02:21:16;;;;;;;12.47;6.60;;;;;;;-0.37;60.11;100940.55;1404238;92;21377;-78
2023/03/30 02:23:45;;;;;;;11.30;6.83;;;;;;;-0.37;59.85;100938.78;1411377;92;21466;-78
2023/03/30 02:26:12;;;;;;;11.78;6.62;;;;;;;-0.39;60.06;100941.06;1390236;92;21355;-77
2023/03/30 02:28:39;;;;;;;15.50;7.83;;;;;;;-0.38;60.74;100946.64;1408305;92;22304;-77
2023/03/30 02:31:14;;;;;;;10.80;6.22;;;;;;;-0.43;60.61;100944.25;1425028;91;21546;-77
2023/03/30 02:34:05;;;;;;;14.85;6.20;;;;;;;-0.44;60.98;100946.44;1426507;91;21493;-77
2023/03/30 02:36:42;;;;;;;9.88;6.25;;;;;;;-0.47;60.76;100953.08;1423584;91;21406;-77
2023/03/30 02:39:33;;;;;;;12.30;6.92;;;;;;;-0.50;60.80;100951.45;1408681;93;21538;-78
2023/03/30 02:42:17;;;;;;;13.13;6.60;;;;;;;-0.56;62.17;100956.91;1357149;92;21621;-78
2023/03/30 02:45:07;;;;;;;11.85;7.08;;;;;;;-0.58;61.35;100960.02;1415287;92;21630;-77
2023/03/30 02:47:41;;;;;;;10.25;6.90;;;;;;;-0.59;61.25;100963.53;1398475;92;22332;-78
2023/03/30 02:50:34;;;;;;;11.73;6.90;;;;;;;-0.60;61.11;100963.16;1407783;92;21468;-78
2023/03/30 02:53:33;;;;;;;11.45;6.17;;;;;;;-0.58;61.04;100966.52;1384325;92;21453;-78
2023/03/30 02:56:32;;;;;;;13.55;7.15;;;;;;;-0.55;61.34;100971.58;1394896;94;21502;-78
2023/03/30 02:59:15;;;;;;;10.35;6.35;;;;;;;-0.56;61.67;100962.11;1386179;94;22567;-78
2023/03/30 03:02:06;;;;;;;13.60;6.35;;;;;;;-0.51;61.50;100965.37;1388489;94;21576;-78
2023/03/30 03:04:34;;;;;;;10.58;6.10;;;;;;;-0.48;61.44;100967.00;1396959;94;21577;-78
2023/03/30 03:07:01;;;;;;;11.93;6.50;;;;;;;-0.44;61.40;100971.61;1384318;94;21584;-76
2023/03/30 03:09:28;;;;;;;13.15;6.55;;;;;;;-0.40;61.60;100966.66;1371816;94;21429;-79
2023/03/30 03:11:55;;;;;;;14.03;8.25;;;;;;;-0.36;61.67;100970.84;1388519;94;23082;-77
2023/03/30 03:14:21;;;;;;;10.55;6.87;;;;;;;-0.32;61.98;100969.78;1389081;94;21473;-77
2023/03/30 03:16:48;;;;;;;14.70;7.62;;;;;;;-0.28;61.42;100968.77;1393851;94;21325;-78
2023/03/30 03:19:14;;;;;;;12.85;7.50;;;;;;;-0.24;61.44;100966.41;1380536;94;21547;-79
2023/03/30 03:21:41;;;;;;;11.45;6.95;;;;;;;-0.21;61.74;100976.68;1384412;94;21466;-78
2023/03/30 03:24:07;;;;;;;13.28;6.78;;;;;;;-0.18;61.81;100971.34;1384017;94;22331;-79
2023/03/30 03:26:33;;;;;;;14.25;7.12;;;;;;;-0.15;61.83;100964.70;1396719;93;22408;-78
2023/03/30 03:28:59;;;;;;;11.45;6.80;;;;;;;-0.12;61.66;100961.12;1406506;92;21402;-78
2023/03/30 03:31:26;;;;;;;11.65;7.65;;;;;;;-0.09;61.73;100954.48;1427571;91;21516;-78
2023/03/30 03:33:52;;;;;;;11.93;6.85;;;;;;;-0.03;61.83;100958.13;1427752;91;21361;-78
2023/03/30 03:36:18;;;;;;;11.57;6.50;;;;;;;0.02;61.51;100960.54;1422705;91;22594;-78
2023/03/30 03:38:44;;;;;;;11.83;6.22;;;;;;;0.05;61.57;100957.80;1428869;91;21592;-77
2023/03/30 03:41:11;;;;;;;13.48;5.75;;;;;;;0.10;61.63;100961.05;1430265;91;21512;-78
2023/03/30 03:43:37;;;;;;;13.32;6.10;;;;;;;0.14;61.26;100963.89;1423191;91;21420;-77
2023/03/30 03:46:03;;;;;;;11.83;7.03;;;;;;;0.18;61.22;100965.47;1432150;91;21590;-78
2023/03/30 03:48:30;;;;;;;10.95;6.42;;;;;;;0.20;61.31;100968.39;1424353;91;22248;-78
2023/03/30 03:50:58;;;;;;;12.43;7.25;;;;;;;0.20;61.41;100964.48;1420255;91;21546;-79
2023/03/30 03:53:26;;;;;;;14.13;6.40;;;;;;;0.23;61.15;100962.18;1428289;91;21443;-77
2023/03/30 03:55:53;;;;;;;15.50;6.67;;;;;;;0.27;61.17;100958.55;1423879;91;21590;-77
2023/03/30 03:58:26;;;;;;;9.88;6.35;;;;;;;0.32;61.08;100958.34;1422554;91;21390;-78
2023/03/30 04:00:59;;;;;;;11.30;6.10;;;;;;;0.35;61.00;100956.44;1427828;91;21480;-78
2023/03/30 04:03:25;;;;;;;10.53;6.28;;;;;;;0.40;60.98;100952.31;1429958;91;21590;-78
2023/03/30 04:05:52;;;;;;;12.70;6.33;;;;;;;0.44;61.39;100945.60;1425161;90;21465;-78
2023/03/30 04:08:18;;;;;;;13.48;6.95;;;;;;;0.51;60.73;100945.31;1422485;91;21858;-79
2023/03/30 04:10:44;;;;;;;13.43;6.45;;;;;;;0.55;60.73;100942.98;1424230;91;21450;-79
2023/03/30 04:13:11;;;;;;;11.08;6.55;;;;;;;0.59;60.90;100938.00;1424099;91;21398;-78
2023/03/30 04:15:37;;;;;;;10.38;5.65;;;;;;;0.63;60.77;100942.13;1426830;91;22365;-79
2023/03/30 04:18:04;;;;;;;12.25;6.08;;;;;;;0.63;61.04;100933.89;1400600;91;21443;-79
2023/03/30 04:20:30;;;;;;;12.23;6.78;;;;;;;0.66;60.40;100938.08;1425361;91;21487;-79
2023/03/30 04:23:00;;;;;;;10.20;6.50;;;;;;;0.67;60.39;100938.48;1428713;91;21354;-81
2023/03/30 04:25:25;;;;;;;12.10;6.42;;;;;;;0.71;60.55;100936.58;1402863;91;21456;-80
2023/03/30 04:27:52;;;;;;;16.73;7.17;;;;;;;0.71;60.53;100936.58;1432685;91;21375;-81
2023/03/30 04:30:21;;;;;;;11.08;5.78;;;;;;;0.75;60.26;100942.89;1423066;91;22407;-80
2023/03/30 04:33:01;;;;;;;16.80;6.75;;;;;;;0.76;60.34;100946.33;1420123;91;21598;-80
2023/03/30 04:35:18;;;;;;;13.10;8.95;;;;;;;0.80;60.23;100945.25;1430435;91;21561;-80
2023/03/30 04:37:44;;;;;;;15.25;6.62;;;;;;;0.84;60.20;100948.13;1424558;91;21450;-80
2023/03/30 04:40:12;;;;;;;11.85;6.65;;;;;;;0.87;60.41;100946.20;1424183;91;21508;-79
2023/03/30 04:42:38;;;;;;;11.95;6.40;;;;;;;0.88;60.18;100946.58;1429769;91;21929;-84
2023/03/30 04:45:07;;;;;;;12.68;6.62;;;;;;;0.93;60.26;100950.75;1421894;91;21553;-81
2023/03/30 04:47:34;;;;;;;10.23;6.55;;;;;;;0.94;60.17;100945.91;1424999;91;22352;-81
2023/03/30 04:50:01;;;;;;;12.82;6.75;;;;;;;0.97;60.49;100946.60;1426262;91;21635;-80
2023/03/30 04:52:27;;;;;;;17.05;6.42;;;;;;;1.00;60.03;100951.66;1428029;91;21472;-80
2023/03/30 04:54:54;;;;;;;11.40;6.08;;;;;;;1.03;60.16;100950.20;1429369;91;22537;-80
2023/03/30 04:57:20;;;;;;;11.15;5.70;;;;;;;1.06;60.00;100947.92;1423400;91;21414;-80
2023/03/30 04:59:46;;;;;;;8.83;6.03;;;;;;;1.12;60.06;100945.02;1424926;91;21361;-80
2023/03/30 05:02:15;;;;;;;10.23;5.83;;;;;;;1.17;59.94;100943.50;1425422;91;21442;-80
2023/03/30 05:04:41;;;;;;;11.80;6.28;;;;;;;1.19;59.45;100935.98;1419467;91;21495;-80
2023/03/30 05:07:10;;;;;;;10.03;6.55;;;;;;;1.21;59.42;100934.59;1424743;91;21384;-79
2023/03/30 05:09:36;;;;;;;9.95;5.80;;;;;;;1.25;59.10;100940.89;1429179;91;21914;-80
2023/03/30 05:12:03;;;;;;;11.48;6.72;;;;;;;1.29;59.13;100950.70;1432868;91;21420;-82
2023/03/30 05:14:29;;;;;;;14.15;7.15;;;;;;;1.31;58.86;100948.41;1424096;91;21391;-80
2023/03/30 05:16:57;;;;;;;26.80;6.90;;;;;;;1.35;58.85;100943.45;1429216;91;21554;-80
2023/03/30 05:19:24;;;;;;;13.83;7.53;;;;;;;1.40;58.98;100941.06;1423691;91;21910;-80
2023/03/30 05:21:50;;;;;;;10.85;6.37;;;;;;;1.42;58.72;100938.77;1425385;91;21630;-80
2023/03/30 05:24:16;;;;;;;10.23;6.53;;;;;;;1.48;58.57;100932.39;1422308;91;21420;-79
2023/03/30 05:26:42;;;;;;;17.13;6.53;;;;;;;1.54;58.29;100932.08;1429808;91;22321;-79
2023/03/30 05:29:08;;;;;;;9.20;6.03;;;;;;;1.60;58.08;100934.84;1428180;91;21743;-79
2023/03/30 05:31:35;;;;;;;8.03;5.33;;;;;;;1.65;57.91;100931.08;1417724;91;21635;-81
2023/03/30 05:34:01;;;;;;;17.77;6.97;;;;;;;1.68;57.61;100929.62;1432608;91;22571;-82
2023/03/30 05:36:27;;;;;;;15.20;7.53;;;;;;;1.77;57.65;100938.73;1419781;91;22737;-80
2023/03/30 05:38:53;;;;;;;12.00;6.60;;;;;;;1.82;57.49;100938.05;1424663;91;21685;-81
2023/03/30 05:41:21;;;;;;;14.40;6.27;;;;;;;1.86;57.50;100937.42;1418363;91;21593;-81
2023/03/30 05:43:47;;;;;;;14.67;6.17;;;;;;;1.86;57.21;100936.12;1422972;91;21794;-79
2023/03/30 05:46:14;;;;;;;11.30;6.13;;;;;;;1.90;57.28;100937.63;1432946;91;21704;-82
2023/03/30 05:48:40;;;;;;;29.33;6.37;;;;;;;1.92;56.75;100937.09;1401297;91;22579;-81
2023/03/30 05:51:06;;;;;;;12.20;7.13;;;;;;;1.96;56.86;100939.95;1423941;91;21612;-81
2023/03/30 05:53:33;;;;;;;12.73;6.57;;;;;;;2.00;56.73;100941.47;1425048;91;21639;-81
2023/03/30 05:55:59;;;;;;;12.77;7.33;;;;;;;2.03;56.71;100940.00;1425084;91;21662;-81
2023/03/30 05:58:26;;;;;;;15.87;7.07;;;;;;;2.08;56.78;100941.91;1434566;91;22644;-80
2023/03/30 06:00:53;;;;;;;12.70;6.60;;;;;;;2.12;56.73;100936.89;1431714;91;21570;-81
2023/03/30 06:03:19;;;;;;;14.23;7.00;;;;;;;2.19;56.60;100939.58;1426962;91;21647;-81
2023/03/30 06:05:46;;;;;;;12.20;7.60;;;;;;;2.30;56.66;100943.38;1407371;91;23244;-81
2023/03/30 06:08:13;;;;;;;21.57;8.80;;;;;;;2.38;56.47;100928.97;1423025;91;22600;-81
2023/03/30 06:10:40;;;;;;;15.40;8.80;;;;;;;2.48;56.35;100928.87;1425309;91;21637;-82
2023/03/30 06:13:07;;;;;;;12.67;7.23;;;;;;;2.60;56.49;100931.73;1422441;91;21679;-81
2023/03/30 06:15:33;;;;;;;12.77;7.57;;;;;;;2.70;55.80;100931.16;1429662;91;22713;-82
2023/03/30 06:18:02;;;;;;;21.97;7.53;;;;;;;2.77;55.65;100936.05;1428227;91;22077;-82
2023/03/30 06:20:27;;;;;;;9.57;5.80;;;;;;;2.87;55.89;100939.81;1425682;91;21758;-83
2023/03/30 06:22:54;;;;;;;11.83;7.33;;;;;;;2.91;55.06;100944.80;1423077;91;21720;-86
2023/03/30 06:25:20;;;;;;;10.37;6.40;;;;;;;2.93;54.81;100946.00;1426688;91;21789;-82
2023/03/30 06:27:47;;;;;;;15.27;8.07;;;;;;;2.99;55.39;100949.58;1426347;91;22163;-83
2023/03/30 06:30:14;;;;;;;11.60;7.47;;;;;;;3.06;55.22;100948.31;1409899;91;22412;-85
2023/03/30 06:32:40;;;;;;;14.57;6.83;;;;;;;3.13;54.81;100947.50;1422661;91;21574;-85
2023/03/30 06:35:07;;;;;;;13.87;8.13;;;;;;;3.23;55.01;100942.13;1429509;91;21654;-85
2023/03/30 06:37:39;;;;;;;13.73;8.60;;;;;;;3.32;54.58;100945.99;1425089;91;21807;-85
2023/03/30 06:40:16;;;;;;;13.40;6.63;;;;;;;3.42;54.57;100942.37;1423492;91;21619;-84
2023/03/30 06:42:43;;;;;;;11.07;6.93;;;;;;;3.46;54.29;100946.03;1423428;91;21625;-85
2023/03/30 06:45:10;;;;;;;15.77;8.50;;;;;;;3.51;53.98;100947.92;1437260;91;22687;-85
2023/03/30 06:47:37;;;;;;;17.87;9.87;;;;;;;3.57;54.00;100950.18;1427564;91;22729;-85
2023/03/30 06:50:05;;;;;;;14.80;7.57;;;;;;;3.63;53.14;100955.52;1421524;91;21747;-85
2023/03/30 06:52:38;;;;;;;21.90;12.23;;;;;;;3.68;53.44;100953.92;1424408;91;22609;-88
2023/03/30 06:55:05;;;;;;;22.13;10.87;;;;;;;3.75;53.43;100952.64;1412048;91;21692;-79
2023/03/30 06:57:31;;;;;;;16.47;8.93;;;;;;;3.79;53.10;100954.14;1424160;91;22117;-78
2023/03/30 06:59:57;;;;;;;9.57;7.00;;;;;;;3.83;53.14;100941.25;1424386;91;21553;-78
2023/03/30 07:02:25;;;;;;;12.93;6.97;;;;;;;3.89;52.98;100939.58;1425083;91;22668;-77
2023/03/30 07:04:52;;;;;;;27.53;14.20;;;;;;;3.97;52.39;100939.96;1420627;91;21913;-78
2023/03/30 07:07:19;;;;;;;27.77;8.67;;;;;;;3.99;52.43;100942.47;1426557;91;22302;-78
2023/03/30 07:09:46;;;;;;;12.57;7.13;;;;;;;4.09;52.92;100935.75;1427810;91;21713;-79
2023/03/30 07:12:12;;;;;;;11.40;7.27;;;;;;;4.25;52.39;100940.41;1424329;91;21830;-78
2023/03/30 07:14:38;;;;;;;11.73;6.73;;;;;;;4.25;52.39;100940.41;1425310;91;22125;-77
2023/03/30 07:17:06;;;;;;;11.13;7.53;;;;;;;4.28;52.21;100936.75;1416760;91;22976;-77
2023/03/30 07:19:32;;;;;;;16.23;8.63;;;;;;;4.41;52.62;100944.72;1422598;91;21890;-78
2023/03/30 07:21:58;;;;;;;16.13;8.90;;;;;;;4.53;52.00;100940.02;1429050;91;22836;-79
2023/03/30 07:24:25;;;;;;;10.83;6.30;;;;;;;4.61;52.28;100940.38;1425633;91;22059;-76
2023/03/30 07:26:51;;;;;;;9.60;5.47;;;;;;;4.69;51.02;100925.01;1426763;91;22049;-79
2023/03/30 07:29:19;;;;;;;10.60;6.20;;;;;;;4.69;51.02;100925.01;1423378;91;21898;-77
2023/03/30 07:31:45;;;;;;;13.73;7.33;;;;;;;4.91;51.09;100923.14;1421857;91;23087;-75
2023/03/30 07:34:11;;;;;;;21.87;12.13;;;;;;;4.97;51.04;100913.56;1425185;91;22140;-78
2023/03/30 07:36:37;;;;;;;12.27;6.50;;;;;;;4.97;51.04;100913.56;1426374;91;22107;-78
2023/03/30 07:39:05;;;;;;;10.00;5.87;;;;;;;5.13;50.90;100915.20;1425776;91;22136;-77
2023/03/30 07:41:31;;;;;;;11.43;5.77;;;;;;;5.29;51.13;100913.23;1423680;91;22113;-75
2023/03/30 07:43:58;;;;;;;11.37;7.03;;;;;;;5.48;50.48;100915.48;1428315;91;22128;-77
2023/03/30 07:46:24;;;;;;;11.93;5.90;;;;;;;5.66;50.39;100919.95;1421924;91;22161;-77
2023/03/30 07:48:51;;;;;;;11.50;6.20;;;;;;;5.80;50.24;100925.11;1423992;91;22135;-77
2023/03/30 07:51:24;;;;;;;13.23;5.50;;;;;;;5.95;49.88;100930.30;1411802;91;23008;-76
2023/03/30 07:53:50;;;;;;;9.90;5.93;;;;;;;5.97;48.75;100910.91;1422316;91;22114;-77
2023/03/30 08:00:20;;;;;;;9.00;5.87;;;;;;;6.20;49.35;100917.14;1425301;91;21981;-76
2023/03/30 08:02:46;;;;;;;12.70;6.27;;;;;;;6.40;48.10;100912.27;1423037;91;21848;-76
2023/03/30 08:05:14;;;;;;;9.93;6.43;;;;;;;6.50;48.54;100910.20;1424479;91;21692;-76
2023/03/30 08:07:40;;;;;;;13.17;7.40;;;;;;;6.57;47.81;100915.85;1465695;90;21466;-75
2023/03/30 08:10:08;;;;;;;14.87;6.67;;;;;;;6.64;47.54;100911.81;1354943;91;21299;-76
2023/03/30 08:12:35;;;;;;;9.73;5.57;;;;;;;6.72;47.19;100907.33;1353727;91;21273;-77
2023/03/30 08:15:02;;;;;;;9.40;4.93;;;;;;;6.83;47.85;100910.51;1354288;91;21324;-76
2023/03/30 08:17:29;;;;;;;6.30;4.77;;;;;;;6.90;46.97;100911.72;1353785;91;21414;-75
2023/03/30 08:19:56;;;;;;;8.43;5.67;;;;;;;6.90;46.21;100908.61;1354163;91;21266;-77
2023/03/30 08:22:22;;;;;;;9.70;4.80;;;;;;;7.08;46.48;100905.13;1354838;91;21625;-78
2023/03/30 08:24:48;;;;;;;9.03;4.73;;;;;;;7.31;46.15;100901.23;1355044;91;21251;-80
2023/03/30 08:27:14;;;;;;;10.93;5.17;;;;;;;7.49;46.01;100897.23;1351073;92;21421;-78
2023/03/30 08:29:41;;;;;;;11.17;6.03;;;;;;;7.71;45.57;100891.63;1354812;91;22169;-77
2023/03/30 08:32:07;;;;;;;14.73;5.80;;;;;;;7.82;45.44;100882.42;1355207;91;21332;-76
2023/03/30 08:34:33;;;;;;;6.13;4.33;;;;;;;7.96;45.55;100886.15;1360203;91;21465;-78
2023/03/30 08:37:00;;;;;;;12.50;6.23;;;;;;;8.06;45.35;100884.48;1354705;91;21266;-78
2023/03/30 08:39:28;;;;;;;11.10;5.03;;;;;;;8.19;45.01;100871.16;1354785;91;21421;-78
2023/03/30 08:42:24;;;;;;;7.33;4.67;;;;;;;8.40;45.20;100875.27;1352563;91;21332;-79
2023/03/30 08:44:55;;;;;;;9.77;4.60;;;;;;;8.58;44.80;100861.91;1351914;92;21370;-77
2023/03/30 08:47:37;;;;;;;10.67;5.97;;;;;;;8.84;44.44;100854.98;1352326;91;21280;-78
2023/03/30 08:50:33;;;;;;;;;;;;;;;9.02;44.91;100860.55;1507367;91;21222;-79
2023/03/30 08:53:00;;;;;;;9.90;5.07;;;;;;;9.09;43.78;100860.86;1487929;92;20239;-78
2023/03/30 08:55:37;;;;;;;9.03;4.93;;;;;;;9.15;44.47;100866.49;1354080;91;21420;-78
2023/03/30 08:58:26;;;;;;;5.97;4.07;;;;;;;9.26;44.62;100858.97;1505067;91;21991;-77
2023/03/30 09:01:13;;;;;;;7.70;4.53;;;;;;;9.46;45.40;100858.13;1351629;91;21517;-77
2023/03/30 09:04:19;;;;;;;9.27;4.77;;;;;;;9.65;45.32;100860.55;1504076;91;21332;-78
2023/03/30 09:06:57;;;;;;;8.07;4.23;;;;;;;9.80;45.50;100856.58;1361358;91;21524;-77
2023/03/30 09:16:42;;;;;;;8.68;4.22;;;;;;;10.21;43.62;100857.42;1350718;106;21295;-78
2023/03/30 09:19:15;;;;;;;8.20;4.87;;;;;;;10.35;44.13;100850.95;1356627;91;21266;-78
2023/03/30 09:21:42;;;;;;;7.67;4.50;;;;;;;10.43;44.10;100850.28;1493862;91;21265;-78
2023/03/30 09:24:15;;;;;;;8.67;4.87;;;;;;;10.48;43.83;100843.61;1354026;91;21566;-77
2023/03/30 09:26:50;;;;;;;17.57;15.67;;;;;;;10.56;44.30;100846.91;1352239;92;21458;-78
2023/03/30 09:29:25;;;;;;;10.27;5.80;;;;;;;10.51;43.22;100834.56;1492982;91;21369;-78
2023/03/30 09:32:05;;;;;;;8.87;5.63;;;;;;;10.56;42.54;100835.00;1353884;93;21406;-79
2023/03/30 09:34:46;;;;;;;8.00;4.30;;;;;;;10.53;43.60;100834.78;1370464;91;21443;-78
2023/03/30 09:37:17;;;;;;;10.43;4.72;;;;;;;10.55;42.60;100830.66;1480436;93;21250;-79
2023/03/30 09:39:47;;;;;;;10.50;5.60;;;;;;;10.50;42.92;100827.12;1339672;92;22306;-79
2023/03/30 09:42:37;;;;;;;6.40;4.97;;;;;;;10.51;43.02;100833.24;1351254;91;21356;-78
2023/03/30 09:45:14;;;;;;;921.87;751.07;;;;;;;10.55;44.02;100830.66;1505203;91;21200;-79
2023/03/30 09:47:41;;;;;;;29.37;23.30;;;;;;;10.63;43.91;100822.04;1499447;91;21516;-79
2023/03/30 09:50:18;;;;;;;23.83;16.73;;;;;;;10.68;42.64;100827.27;1354616;91;21347;-78
2023/03/30 09:53:04;;;;;;;7.20;4.87;;;;;;;10.71;42.66;100824.84;1503789;91;21340;-79
2023/03/30 09:55:34;;;;;;;11.10;5.43;;;;;;;10.60;42.49;100818.69;1350801;91;21331;-80
2023/03/30 09:58:19;;;;;;;37.75;23.75;;;;;;;10.56;42.76;100816.47;1351097;91;21436;-77
2023/03/30 10:00:51;;;;;;;9.60;6.37;;;;;;;10.65;42.93;100812.98;1505028;91;22073;-77
2023/03/30 10:03:21;;;;;;;11.33;8.27;;;;;;;10.66;42.26;100817.30;1357281;92;21294;-78
2023/03/30 10:06:12;;;;;;;16.07;7.33;;;;;;;10.63;43.15;100810.13;1480157;91;22323;-79
2023/03/30 10:08:52;;;;;;;15.43;7.00;;;;;;;10.71;43.43;100810.27;1423329;90;21575;-78
2023/03/30 10:11:21;;;;;;;32.30;20.70;;;;;;;10.86;42.71;100806.72;1425821;91;21339;-76
2023/03/30 10:13:51;;;;;;;23.67;11.37;;;;;;;11.03;43.03;100808.66;1424709;91;21563;-76
2023/03/30 10:16:34;;;;;;;14.87;7.93;;;;;;;11.18;42.46;100795.80;1365599;91;21354;-77
2023/03/30 10:19:07;;;;;;;10.68;7.35;;;;;;;11.29;42.48;100794.31;1352280;91;21318;-79
2023/03/30 10:21:38;;;;;;;16.73;4.73;;;;;;;11.38;41.76;100796.09;1504818;91;21413;-78
2023/03/30 10:24:17;;;;;;;13.35;5.62;;;;;;;11.34;41.45;100799.20;1356471;91;21406;-79
2023/03/30 10:26:48;;;;;;;8.50;4.63;;;;;;;11.18;40.52;100793.98;1493335;92;21215;-79
2023/03/30 10:29:21;;;;;;;11.10;5.37;;;;;;;10.99;40.51;100799.30;1352526;91;22183;-79
2023/03/30 10:31:51;;;;;;;8.57;4.90;;;;;;;10.88;41.05;100795.50;1350819;91;21395;-80
2023/03/30 10:34:35;;;;;;;7.67;4.30;;;;;;;10.74;41.30;100791.47;1353367;91;21464;-81
2023/03/30 10:37:05;;;;;;;9.10;5.30;;;;;;;10.70;41.88;100789.56;1503916;91;21295;-80
2023/03/30 10:39:34;;;;;;;9.53;5.85;;;;;;;10.66;42.21;100793.47;1475334;91;21376;-80
2023/03/30 10:42:04;;;;;;;11.23;6.77;;;;;;;10.66;42.30;100789.50;1421923;91;21693;-79
2023/03/30 10:44:35;;;;;;;13.97;8.67;;;;;;;10.74;42.21;100788.81;1428357;91;22417;-79
2023/03/30 10:47:28;;;;;;;13.37;6.80;;;;;;;10.82;42.67;100783.66;1423003;91;21375;-78
2023/03/30 10:50:42;;;;;;;16.43;7.47;;;;;;;10.86;41.37;100776.27;1425557;91;21464;-78
2023/03/30 10:53:32;;;;;;;6.47;3.60;;;;;;;10.77;41.47;100780.09;1427757;91;21420;-77
2023/03/30 10:56:21;;;;;;;8.63;5.87;;;;;;;10.73;41.09;100789.77;1414251;92;22676;-78
2023/03/30 10:59:28;;;;;;;11.03;5.13;;;;;;;10.70;42.04;100781.62;1427720;91;21839;-78
2023/03/30 11:02:41;;;;;;;10.50;5.53;;;;;;;10.67;41.54;100774.45;1426996;91;21566;-77
2023/03/30 11:05:29;;;;;;;9.97;4.20;;;;;;;10.71;41.74;100771.40;1387680;94;21473;-77
2023/03/30 11:08:12;;;;;;;11.00;5.30;;;;;;;10.62;41.26;100773.56;1396267;94;21660;-77
2023/03/30 11:10:45;;;;;;;7.53;3.50;;;;;;;10.59;41.94;100768.55;1419361;91;21619;-79
2023/03/30 11:13:26;;;;;;;7.97;4.53;;;;;;;10.69;42.19;100753.98;1422077;91;21478;-79
2023/03/30 11:15:58;;;;;;;10.07;4.70;;;;;;;10.70;42.12;100759.11;1396398;91;21458;-78
2023/03/30 11:18:38;;;;;;;6.93;4.70;;;;;;;10.75;42.51;100758.22;1350926;92;21458;-77
2023/03/30 11:21:22;;;;;;;8.80;4.62;;;;;;;10.80;42.40;100747.22;1505334;91;22080;-78
2023/03/30 11:24:08;;;;;;;6.73;4.93;;;;;;;10.77;42.09;100741.71;1426240;91;22498;-79
2023/03/30 11:27:18;;;;;;;10.00;4.17;;;;;;;10.73;42.36;100748.27;1424441;91;21449;-77
2023/03/30 11:30:15;;;;;;;7.65;4.97;;;;;;;10.80;42.68;100733.48;1423626;91;21450;-78
2023/03/30 11:33:07;;;;;;;6.60;4.27;;;;;;;10.85;42.67;100733.07;1420743;91;21472;-78
2023/03/30 11:35:48;;;;;;;8.17;4.60;;;;;;;10.99;42.28;100727.79;1425667;91;21517;-78
2023/03/30 11:38:26;;;;;;;;;;;;;;;11.05;42.19;100718.81;1422288;91;22249;-78
2023/03/30 11:48:40;;;;;;;8.97;5.20;;;;;;;11.67;43.20;100697.89;1346875;94;22330;-78
2023/03/30 11:51:44;;;;;;;9.43;4.80;;;;;;;11.66;42.15;100698.06;1378630;95;21547;-78
2023/03/30 11:54:41;;;;;;;10.53;4.07;;;;;;;11.61;41.77;100685.23;1384504;95;21598;-77
2023/03/30 11:57:49;;;;;;;10.33;4.73;;;;;;;11.46;41.82;100682.25;1382007;94;21667;-77
2023/03/30 12:00:52;;;;;;;7.30;4.60;;;;;;;11.20;42.49;100678.11;1375536;95;21457;-78
2023/03/30 12:03:36;;;;;;;7.77;4.63;;;;;;;11.17;42.78;100667.81;1381811;95;21575;-77
2023/03/30 12:06:37;;;;;;;9.43;5.00;;;;;;;11.05;42.92;100662.35;1378278;95;21679;-79
2023/03/30 12:09:20;;;;;;;12.05;5.47;;;;;;;11.04;43.46;100653.55;1354439;97;21736;-78